Time,TemperatureF,DewpointF,PressureIn,WindDirection,WindDirectionDegrees,WindSpeedMPH,WindSpeedGustMPH,Humidity,HourlyPrecipIn,Conditions,Clouds,dailyrainin,SoftwareType,DateUTC
2013-07-22 00:01:00,69.3,68.9,29.99,ENE,76,0.0,0.0,99,0.00,,,0.45,meteohub,2013-07-22 04:01:00,
2013-07-22 00:02:00,69.3,68.9,29.99,ENE,76,0.0,0.0,99,0.00,,,0.45,meteohub,2013-07-22 04:02:00,
2013-07-22 00:07:00,69.4,69.1,29.99,East,91,0.0,0.0,99,0.00,,,0.00,meteohub,2013-07-22 04:07:00,
2013-07-22 00:12:00,69.4,69.1,29.99,East,82,0.0,1.0,99,0.00,,,0.00,meteohub,2013-07-22 04:12:00,
2013-07-22 00:17:00,69.4,69.1,29.99,East,90,0.0,1.0,99,0.00,,,0.00,meteohub,2013-07-22 04:17:00,
2013-07-22 00:22:00,69.6,69.3,29.99,NNE,21,0.0,1.0,99,0.00,,,0.00,meteohub,2013-07-22 04:22:00,
2013-07-22 00:27:00,70.0,69.6,29.99,North,358,0.0,2.0,99,0.00,,,0.00,meteohub,2013-07-22 04:27:00,
2013-07-22 00:32:00,70.0,69.6,29.99,North,356,0.0,2.0,99,0.00,,,0.00,meteohub,2013-07-22 04:32:00,
2013-07-22 00:37:00,70.2,69.8,29.99,ENE,63,0.0,2.0,99,0.00,,,0.00,meteohub,2013-07-22 04:37:00,
2013-07-22 00:42:00,70.2,69.6,29.99,SE,138,0.0,1.0,98,0.00,,,0.00,meteohub,2013-07-22 04:42:00,
2013-07-22 00:47:00,70.0,69.4,29.99,SE,138,0.0,1.0,98,0.00,,,0.00,meteohub,2013-07-22 04:47:00,
2013-07-22 00:52:00,70.0,69.4,29.99,SSE,153,0.0,1.0,98,0.00,,,0.00,meteohub,2013-07-22 04:52:00,
2013-07-22 00:57:00,69.8,69.3,29.99,East,95,0.0,1.0,98,0.00,,,0.00,meteohub,2013-07-22 04:57:00,
2013-07-22 01:02:00,70.0,69.6,29.99,NNW,342,2.0,2.0,99,0.00,,,0.00,meteohub,2013-07-22 05:02:00,
2013-07-22 01:07:00,70.2,69.8,29.99,East,84,0.0,3.0,99,0.00,,,0.00,meteohub,2013-07-22 05:07:00,
2013-07-22 01:12:00,70.3,70.0,29.99,East,94,1.0,3.0,99,0.00,,,0.00,meteohub,2013-07-22 05:12:00,
2013-07-22 01:17:00,70.3,69.8,29.99,East,84,0.0,3.0,98,0.00,,,0.00,meteohub,2013-07-22 05:17:00,
2013-07-22 01:22:00,70.3,69.8,29.99,East,82,0.0,3.0,98,0.00,,,0.00,meteohub,2013-07-22 05:22:00,
2013-07-22 01:27:00,70.3,69.8,29.99,East,84,0.0,3.0,98,0.00,,,0.00,meteohub,2013-07-22 05:27:00,
2013-07-22 01:32:00,70.3,69.8,29.99,ESE,106,0.0,2.0,98,0.00,,,0.00,meteohub,2013-07-22 05:32:00,
2013-07-22 01:37:00,70.3,69.8,29.99,East,93,0.0,2.0,98,0.00,,,0.00,meteohub,2013-07-22 05:37:00,
2013-07-22 01:42:00,70.3,69.8,29.99,NE,54,2.0,2.0,98,0.00,,,0.00,meteohub,2013-07-22 05:42:00,
2013-07-22 01:47:00,70.3,69.8,29.99,ESE,111,0.0,3.0,98,0.00,,,0.00,meteohub,2013-07-22 05:47:00,
2013-07-22 01:52:00,70.3,69.8,29.99,ESE,104,2.0,3.0,98,0.00,,,0.00,meteohub,2013-07-22 05:52:00,
2013-07-22 01:57:00,70.2,69.6,29.99,ENE,72,0.0,4.0,98,0.00,,,0.00,meteohub,2013-07-22 05:57:00,
2013-07-22 02:02:00,70.2,69.6,29.99,ENE,77,0.0,4.0,98,0.00,,,0.00,meteohub,2013-07-22 06:02:00,
2013-07-22 02:06:00,70.2,69.6,29.99,ESE,105,3.0,4.0,98,0.00,,,0.00,meteohub,2013-07-22 06:06:00,
2013-07-22 02:12:00,70.2,69.6,29.99,ENE,75,0.0,5.0,98,0.00,,,0.00,meteohub,2013-07-22 06:12:00,
2013-07-22 02:17:00,70.2,69.6,29.99,ESE,106,1.0,5.0,98,0.00,,,0.00,meteohub,2013-07-22 06:17:00,
2013-07-22 02:22:00,70.2,69.6,29.98,ESE,108,1.0,5.0,98,0.00,,,0.00,meteohub,2013-07-22 06:22:00,
2013-07-22 02:27:00,70.2,69.6,29.98,East,88,0.0,3.0,98,0.00,,,0.00,meteohub,2013-07-22 06:27:00,
2013-07-22 02:32:00,70.2,69.6,29.98,ESE,108,2.0,3.0,98,0.00,,,0.00,meteohub,2013-07-22 06:32:00,
2013-07-22 02:37:00,70.0,69.4,29.99,ESE,108,0.0,3.0,98,0.00,,,0.00,meteohub,2013-07-22 06:37:00,
2013-07-22 02:42:00,70.0,69.4,29.98,ENE,73,3.0,3.0,98,0.00,,,0.00,meteohub,2013-07-22 06:42:00,
2013-07-22 02:47:00,70.0,69.4,29.98,East,92,0.0,3.0,98,0.00,,,0.00,meteohub,2013-07-22 06:47:00,
2013-07-22 02:52:00,70.0,69.4,29.99,ENE,75,1.0,3.0,98,0.00,,,0.00,meteohub,2013-07-22 06:52:00,
2013-07-22 02:57:00,70.0,69.4,29.99,ESE,105,1.0,3.0,98,0.00,,,0.00,meteohub,2013-07-22 06:57:00,
2013-07-22 03:02:00,70.0,69.4,29.98,East,98,0.0,3.0,98,0.00,,,0.00,meteohub,2013-07-22 07:02:00,
2013-07-22 03:07:00,70.0,69.4,29.99,ENE,63,1.0,3.0,98,0.00,,,0.00,meteohub,2013-07-22 07:07:00,
2013-07-22 03:12:00,70.0,69.4,29.99,ENE,76,2.0,3.0,98,0.00,,,0.00,meteohub,2013-07-22 07:12:00,
2013-07-22 03:17:00,70.0,69.4,29.99,NE,49,2.0,3.0,98,0.00,,,0.00,meteohub,2013-07-22 07:17:00,
2013-07-22 03:22:00,70.2,69.6,29.99,ESE,102,0.0,4.0,98,0.00,,,0.00,meteohub,2013-07-22 07:22:00,
2013-07-22 03:27:00,70.0,69.4,29.99,NE,51,1.0,4.0,98,0.00,,,0.00,meteohub,2013-07-22 07:27:00,
2013-07-22 03:32:00,70.0,69.4,29.99,East,82,0.0,4.0,98,0.00,,,0.00,meteohub,2013-07-22 07:32:00,
2013-07-22 03:37:00,70.0,69.4,29.98,East,98,0.0,4.0,98,0.00,,,0.00,meteohub,2013-07-22 07:37:00,
2013-07-22 03:42:00,70.0,69.4,29.98,NE,43,2.0,4.0,98,0.00,,,0.00,meteohub,2013-07-22 07:42:00,
2013-07-22 03:46:00,70.0,69.4,29.98,North,6,3.0,4.0,98,0.00,,,0.00,meteohub,2013-07-22 07:46:00,
2013-07-22 03:51:00,70.0,69.4,29.98,NNE,20,3.0,6.0,98,0.00,,,0.00,meteohub,2013-07-22 07:51:00,
2013-07-22 03:57:00,70.0,69.4,29.98,NE,47,3.0,6.0,98,0.00,,,0.00,meteohub,2013-07-22 07:57:00,
2013-07-22 04:02:00,70.0,69.1,29.97,NNE,27,3.0,5.0,97,0.00,,,0.00,meteohub,2013-07-22 08:02:00,
2013-07-22 04:07:00,69.6,68.7,29.97,NE,42,4.0,5.0,97,0.00,,,0.00,meteohub,2013-07-22 08:07:00,
2013-07-22 04:12:00,69.6,68.7,29.97,NE,47,2.0,5.0,97,0.00,,,0.00,meteohub,2013-07-22 08:12:00,
2013-07-22 04:17:00,69.6,68.7,29.97,NE,56,2.0,5.0,97,0.00,,,0.00,meteohub,2013-07-22 08:17:00,
2013-07-22 04:22:00,69.6,68.7,29.97,ENE,58,2.0,4.0,97,0.00,,,0.00,meteohub,2013-07-22 08:22:00,
2013-07-22 04:27:00,69.6,68.7,29.98,East,89,1.0,3.0,97,0.00,,,0.00,meteohub,2013-07-22 08:27:00,
2013-07-22 04:32:00,69.8,68.9,29.97,ENE,72,2.0,4.0,97,0.00,,,0.00,meteohub,2013-07-22 08:32:00,
2013-07-22 04:37:00,69.8,68.5,29.97,NE,47,2.0,5.0,96,0.00,,,0.00,meteohub,2013-07-22 08:37:00,
2013-07-22 04:42:00,69.8,68.5,29.97,East,91,1.0,5.0,96,0.00,,,0.00,meteohub,2013-07-22 08:42:00,
2013-07-22 04:47:00,69.6,68.4,29.97,ENE,68,4.0,5.0,96,0.00,,,0.00,meteohub,2013-07-22 08:47:00,
2013-07-22 04:52:00,69.6,68.4,29.98,East,79,0.0,5.0,96,0.00,,,0.00,meteohub,2013-07-22 08:52:00,
2013-07-22 04:57:00,69.6,68.4,29.98,East,100,0.0,5.0,96,0.00,,,0.00,meteohub,2013-07-22 08:57:00,
2013-07-22 05:02:00,69.6,68.4,29.98,East,89,0.0,5.0,96,0.00,,,0.00,meteohub,2013-07-22 09:02:00,
2013-07-22 05:07:00,69.6,68.4,29.98,ENE,60,0.0,2.0,96,0.00,,,0.00,meteohub,2013-07-22 09:07:00,
2013-07-22 05:12:00,69.8,68.5,29.97,ENE,77,3.0,3.0,96,0.00,,,0.00,meteohub,2013-07-22 09:12:00,
2013-07-22 05:17:00,69.8,68.5,29.98,ENE,61,2.0,2.0,96,0.00,,,0.00,meteohub,2013-07-22 09:17:00,
2013-07-22 05:22:00,70.0,68.5,29.97,ESE,110,2.0,4.0,95,0.00,,,0.00,meteohub,2013-07-22 09:22:00,
2013-07-22 05:27:00,70.0,68.5,29.97,ENE,76,1.0,4.0,95,0.00,,,0.00,meteohub,2013-07-22 09:27:00,
2013-07-22 05:32:00,70.0,68.5,29.97,ESE,108,3.0,3.0,95,0.00,,,0.00,meteohub,2013-07-22 09:32:00,
2013-07-22 05:37:00,70.0,68.5,29.98,ESE,103,0.0,4.0,95,0.00,,,0.00,meteohub,2013-07-22 09:37:00,
2013-07-22 05:42:00,70.0,68.2,29.98,East,98,0.0,4.0,94,0.00,,,0.00,meteohub,2013-07-22 09:42:00,
2013-07-22 05:47:00,70.0,68.2,29.98,ESE,103,0.0,4.0,94,0.00,,,0.00,meteohub,2013-07-22 09:47:00,
2013-07-22 05:52:00,70.0,68.2,29.99,ENE,69,2.0,4.0,94,0.00,,,0.00,meteohub,2013-07-22 09:52:00,
2013-07-22 05:57:00,70.0,68.2,29.98,NE,35,0.0,3.0,94,0.00,,,0.00,meteohub,2013-07-22 09:57:00,
2013-07-22 06:02:00,70.2,68.0,29.99,NE,37,2.0,4.0,93,0.00,,,0.00,meteohub,2013-07-22 10:02:00,
2013-07-22 06:07:00,70.3,68.2,29.99,ENE,70,0.0,5.0,93,0.00,,,0.00,meteohub,2013-07-22 10:07:00,
2013-07-22 06:12:00,70.2,68.0,29.99,East,101,0.0,5.0,93,0.00,,,0.00,meteohub,2013-07-22 10:12:00,
2013-07-22 06:17:00,70.2,68.0,29.99,East,98,1.0,5.0,93,0.00,,,0.00,meteohub,2013-07-22 10:17:00,
2013-07-22 06:22:00,70.2,68.4,29.99,NE,56,0.0,5.0,94,0.00,,,0.00,meteohub,2013-07-22 10:22:00,
2013-07-22 06:27:00,70.2,68.4,29.98,ESE,104,0.0,3.0,94,0.00,,,0.00,meteohub,2013-07-22 10:27:00,
2013-07-22 06:32:00,70.2,68.0,29.98,East,96,2.0,3.0,93,0.00,,,0.00,meteohub,2013-07-22 10:32:00,
2013-07-22 06:37:00,70.2,68.0,29.98,East,101,0.0,3.0,93,0.00,,,0.00,meteohub,2013-07-22 10:37:00,
2013-07-22 06:42:00,70.2,68.0,29.99,ESE,118,3.0,3.0,93,0.00,,,0.00,meteohub,2013-07-22 10:42:00,
2013-07-22 06:47:00,70.3,68.2,29.99,NE,36,0.0,3.0,93,0.00,,,0.00,meteohub,2013-07-22 10:47:00,
2013-07-22 06:52:00,70.5,68.0,29.98,East,84,1.0,3.0,92,0.00,,,0.00,meteohub,2013-07-22 10:52:00,
2013-07-22 06:57:00,70.5,68.0,29.98,East,88,0.0,5.0,92,0.00,,,0.00,meteohub,2013-07-22 10:57:00,
2013-07-22 07:02:00,70.7,68.2,29.99,East,80,1.0,5.0,92,0.00,,,0.00,meteohub,2013-07-22 11:02:00,
2013-07-22 07:07:00,70.9,68.2,29.99,ENE,74,2.0,4.0,91,0.00,,,0.00,meteohub,2013-07-22 11:07:00,
2013-07-22 07:12:00,71.1,68.4,29.99,East,92,1.0,4.0,91,0.00,,,0.00,meteohub,2013-07-22 11:12:00,
2013-07-22 07:17:00,71.1,68.4,29.99,ENE,76,2.0,4.0,91,0.00,,,0.00,meteohub,2013-07-22 11:17:00,
2013-07-22 07:22:00,71.2,68.5,29.99,ENE,63,1.0,4.0,91,0.00,,,0.00,meteohub,2013-07-22 11:22:00,
2013-07-22 07:27:00,71.2,68.5,29.99,NE,34,3.0,5.0,91,0.00,,,0.00,meteohub,2013-07-22 11:27:00,
2013-07-22 07:32:00,71.4,68.4,29.99,ENE,70,2.0,5.0,90,0.00,,,0.00,meteohub,2013-07-22 11:32:00,
2013-07-22 07:37:00,71.4,68.4,29.99,ENE,58,4.0,5.0,90,0.00,,,0.00,meteohub,2013-07-22 11:37:00,
2013-07-22 07:42:00,71.4,68.4,29.99,East,91,2.0,5.0,90,0.00,,,0.00,meteohub,2013-07-22 11:42:00,
2013-07-22 07:47:00,71.6,68.5,29.99,ENE,78,3.0,6.0,90,0.00,,,0.00,meteohub,2013-07-22 11:47:00,
2013-07-22 07:52:00,71.8,68.4,29.99,East,92,0.0,6.0,89,0.00,,,0.00,meteohub,2013-07-22 11:52:00,
2013-07-22 07:57:00,72.0,68.5,29.99,ESE,108,4.0,5.0,89,0.00,,,0.00,meteohub,2013-07-22 11:57:00,
2013-07-22 08:02:00,72.0,68.2,29.99,East,84,3.0,6.0,88,0.00,,,0.00,meteohub,2013-07-22 12:02:00,
2013-07-22 08:07:00,72.0,68.5,29.99,ENE,60,5.0,6.0,89,0.00,,,0.00,meteohub,2013-07-22 12:07:00,
2013-07-22 08:12:00,72.0,68.2,29.99,East,94,4.0,7.0,88,0.00,,,0.00,meteohub,2013-07-22 12:12:00,
2013-07-22 08:17:00,72.0,68.2,29.99,East,80,6.0,8.0,88,0.00,,,0.00,meteohub,2013-07-22 12:17:00,
2013-07-22 08:22:00,72.0,68.2,29.99,ESE,113,3.0,8.0,88,0.00,,,0.00,meteohub,2013-07-22 12:22:00,
2013-07-22 08:27:00,72.0,68.5,30.00,East,98,2.0,7.0,89,0.00,,,0.00,meteohub,2013-07-22 12:27:00,
2013-07-22 08:32:00,72.1,68.7,30.00,ENE,78,5.0,7.0,89,0.00,,,0.00,meteohub,2013-07-22 12:32:00,
2013-07-22 08:37:00,72.1,68.4,30.00,East,98,6.0,7.0,88,0.00,,,0.00,meteohub,2013-07-22 12:37:00,
2013-07-22 08:42:00,72.1,68.4,30.00,ESE,110,3.0,8.0,88,0.00,,,0.00,meteohub,2013-07-22 12:42:00,
2013-07-22 08:47:00,72.1,68.4,30.00,East,96,3.0,8.0,88,0.00,,,0.00,meteohub,2013-07-22 12:47:00,
2013-07-22 08:52:00,72.1,68.4,30.01,East,98,3.0,7.0,88,0.00,,,0.00,meteohub,2013-07-22 12:52:00,
2013-07-22 08:57:00,72.3,68.5,30.01,East,96,5.0,7.0,88,0.00,,,0.00,meteohub,2013-07-22 12:57:00,
2013-07-22 09:02:00,72.7,69.3,30.00,NNE,30,2.0,7.0,89,0.00,,,0.00,meteohub,2013-07-22 13:02:00,
2013-07-22 09:07:00,72.9,68.4,30.00,East,86,4.0,7.0,86,0.00,,,0.00,meteohub,2013-07-22 13:07:00,
2013-07-22 09:12:00,73.0,68.5,30.00,ENE,61,4.0,9.0,86,0.00,,,0.00,meteohub,2013-07-22 13:12:00,
2013-07-22 09:17:00,73.2,68.7,30.00,ESE,108,4.0,10.0,86,0.00,,,0.00,meteohub,2013-07-22 13:17:00,
2013-07-22 09:22:00,73.4,68.9,30.00,ESE,103,8.0,10.0,86,0.00,,,0.00,meteohub,2013-07-22 13:22:00,
2013-07-22 09:27:00,73.4,68.9,30.00,ENE,69,6.0,11.0,86,0.00,,,0.00,meteohub,2013-07-22 13:27:00,
2013-07-22 09:32:00,73.8,69.3,30.00,East,96,4.0,11.0,86,0.00,,,0.00,meteohub,2013-07-22 13:32:00,
2013-07-22 09:36:00,73.9,69.1,30.00,East,98,6.0,11.0,85,0.00,,,0.00,meteohub,2013-07-22 13:36:00,
2013-07-22 09:41:00,73.9,68.4,30.00,East,94,5.0,11.0,83,0.00,,,0.00,meteohub,2013-07-22 13:41:00,
2013-07-22 09:46:00,73.6,68.2,30.00,ENE,67,7.0,11.0,83,0.00,,,0.00,meteohub,2013-07-22 13:46:00,
2013-07-22 09:52:00,73.4,68.2,30.00,ESE,115,5.0,11.0,84,0.00,,,0.00,meteohub,2013-07-22 13:52:00,
2013-07-22 09:57:00,73.2,68.2,30.00,ENE,69,7.0,13.0,84,0.00,,,0.00,meteohub,2013-07-22 13:57:00,
2013-07-22 10:02:00,73.2,68.4,30.00,East,86,3.0,13.0,85,0.00,,,0.00,meteohub,2013-07-22 14:02:00,
2013-07-22 10:07:00,73.4,68.2,30.00,ENE,69,10.0,12.0,84,0.00,,,0.00,meteohub,2013-07-22 14:07:00,
2013-07-22 10:12:00,73.4,68.0,30.00,ENE,58,5.0,13.0,83,0.00,,,0.00,meteohub,2013-07-22 14:12:00,
2013-07-22 10:17:00,73.8,68.4,30.00,East,79,10.0,13.0,83,0.00,,,0.00,meteohub,2013-07-22 14:17:00,
2013-07-22 10:22:00,73.9,67.8,30.00,ESE,102,11.0,12.0,81,0.00,,,0.00,meteohub,2013-07-22 14:22:00,
2013-07-22 10:27:00,74.1,67.6,30.00,ENE,64,8.0,13.0,80,0.00,,,0.00,meteohub,2013-07-22 14:27:00,
2013-07-22 10:32:00,74.5,67.8,30.00,ESE,103,8.0,13.0,80,0.00,,,0.00,meteohub,2013-07-22 14:32:00,
2013-07-22 10:37:00,74.5,66.7,30.00,East,92,11.0,13.0,77,0.00,,,0.00,meteohub,2013-07-22 14:37:00,
2013-07-22 10:42:00,74.5,66.7,30.00,East,94,6.0,15.0,77,0.00,,,0.00,meteohub,2013-07-22 14:42:00,
2013-07-22 10:47:00,74.7,66.9,30.00,East,84,5.0,15.0,77,0.00,,,0.00,meteohub,2013-07-22 14:47:00,
2013-07-22 10:52:00,74.8,67.1,30.00,ESE,110,9.0,15.0,77,0.00,,,0.00,meteohub,2013-07-22 14:52:00,
2013-07-22 10:57:00,75.0,67.6,30.00,NE,54,9.0,13.0,78,0.00,,,0.00,meteohub,2013-07-22 14:57:00,
2013-07-22 11:02:00,75.0,67.6,30.00,ENE,76,4.0,11.0,78,0.00,,,0.00,meteohub,2013-07-22 15:02:00,
2013-07-22 11:07:00,75.4,68.0,30.00,East,98,11.0,11.0,78,0.00,,,0.00,meteohub,2013-07-22 15:07:00,
2013-07-22 11:12:00,75.6,67.1,30.01,ESE,113,4.0,12.0,75,0.00,,,0.00,meteohub,2013-07-22 15:12:00,
2013-07-22 11:17:00,75.7,66.9,30.01,ESE,115,6.0,12.0,74,0.00,,,0.00,meteohub,2013-07-22 15:17:00,
2013-07-22 11:22:00,75.6,67.5,30.01,ESE,113,9.0,13.0,76,0.00,,,0.00,meteohub,2013-07-22 15:22:00,
2013-07-22 11:27:00,75.6,67.5,30.00,ESE,110,7.0,13.0,76,0.00,,,0.00,meteohub,2013-07-22 15:27:00,
2013-07-22 11:32:00,75.6,66.7,30.00,ENE,76,10.0,13.0,74,0.00,,,0.00,meteohub,2013-07-22 15:32:00,
2013-07-22 11:37:00,75.6,67.1,30.00,East,94,9.0,13.0,75,0.00,,,0.00,meteohub,2013-07-22 15:37:00,
2013-07-22 11:42:00,75.4,67.6,30.00,SSE,148,3.0,13.0,77,0.00,,,0.00,meteohub,2013-07-22 15:42:00,
2013-07-22 11:47:00,75.4,68.0,30.00,ESE,106,11.0,13.0,78,0.00,,,0.00,meteohub,2013-07-22 15:47:00,
2013-07-22 11:52:00,75.4,68.4,29.99,NE,51,5.0,16.0,79,0.00,,,0.00,meteohub,2013-07-22 15:52:00,
2013-07-22 11:57:00,75.6,68.2,30.00,ENE,78,8.0,16.0,78,0.00,,,0.00,meteohub,2013-07-22 15:57:00,
2013-07-22 12:02:00,75.9,68.9,29.99,East,97,6.0,16.0,79,0.00,,,0.00,meteohub,2013-07-22 16:02:00,
2013-07-22 12:07:00,75.9,68.9,29.99,East,94,10.0,14.0,79,0.00,,,0.00,meteohub,2013-07-22 16:07:00,
2013-07-22 12:12:00,75.9,68.9,29.99,SE,131,6.0,14.0,79,0.00,,,0.00,meteohub,2013-07-22 16:12:00,
2013-07-22 12:17:00,76.3,69.6,29.99,East,91,8.0,13.0,80,0.00,,,0.00,meteohub,2013-07-22 16:17:00,
2013-07-22 12:22:00,75.7,68.7,29.99,East,84,8.0,13.0,79,0.00,,,0.00,meteohub,2013-07-22 16:22:00,
2013-07-22 12:27:00,75.7,69.1,29.99,NE,41,9.0,15.0,80,0.00,,,0.00,meteohub,2013-07-22 16:27:00,
2013-07-22 12:32:00,75.7,68.7,29.99,ENE,72,6.0,15.0,79,0.00,,,0.00,meteohub,2013-07-22 16:32:00,
2013-07-22 12:37:00,75.6,68.5,29.99,SE,134,7.0,14.0,79,0.00,,,0.00,meteohub,2013-07-22 16:37:00,
2013-07-22 12:42:00,75.6,68.9,29.99,East,89,13.0,16.0,80,0.00,,,0.00,meteohub,2013-07-22 16:42:00,
2013-07-22 12:47:00,75.4,69.1,29.98,East,95,6.0,16.0,81,0.00,,,0.00,meteohub,2013-07-22 16:47:00,
2013-07-22 12:52:00,75.2,68.9,29.98,ENE,78,10.0,14.0,81,0.00,,,0.00,meteohub,2013-07-22 16:52:00,
2013-07-22 12:57:00,75.6,69.3,29.98,East,79,2.0,14.0,81,0.00,,,0.00,meteohub,2013-07-22 16:57:00,
2013-07-22 13:02:00,75.7,69.8,29.97,East,97,7.0,14.0,82,0.00,,,0.00,meteohub,2013-07-22 17:02:00,
2013-07-22 13:07:00,75.9,70.0,29.98,ENE,68,4.0,13.0,82,0.00,,,0.00,meteohub,2013-07-22 17:07:00,
2013-07-22 13:12:00,76.3,69.6,29.98,SE,141,5.0,12.0,80,0.00,,,0.00,meteohub,2013-07-22 17:12:00,
2013-07-22 13:17:00,76.5,70.2,29.97,ENE,69,5.0,13.0,81,0.00,,,0.00,meteohub,2013-07-22 17:17:00,
2013-07-22 13:22:00,76.3,69.6,29.98,ESE,111,10.0,13.0,80,0.00,,,0.00,meteohub,2013-07-22 17:22:00,
2013-07-22 13:27:00,76.1,69.4,29.97,ESE,117,7.0,13.0,80,0.00,,,0.00,meteohub,2013-07-22 17:27:00,
2013-07-22 13:32:00,76.1,69.4,29.97,East,101,6.0,13.0,80,0.00,,,0.00,meteohub,2013-07-22 17:32:00,
2013-07-22 13:37:00,76.1,69.4,29.97,ESE,105,7.0,12.0,80,0.00,,,0.00,meteohub,2013-07-22 17:37:00,
2013-07-22 13:42:00,76.1,69.4,29.97,SE,142,4.0,11.0,80,0.00,,,0.00,meteohub,2013-07-22 17:42:00,
2013-07-22 13:46:00,76.1,69.4,29.97,East,95,6.0,12.0,80,0.00,,,0.00,meteohub,2013-07-22 17:46:00,
2013-07-22 13:52:00,75.7,69.4,29.97,ESE,110,8.0,14.0,81,0.00,,,0.00,meteohub,2013-07-22 17:52:00,
2013-07-22 13:57:00,75.9,69.6,29.97,East,84,9.0,14.0,81,0.00,,,0.00,meteohub,2013-07-22 17:57:00,
2013-07-22 14:02:00,75.9,69.6,29.97,ESE,103,6.0,14.0,81,0.00,,,0.00,meteohub,2013-07-22 18:02:00,
2013-07-22 14:07:00,76.3,70.3,29.96,South,173,10.0,12.0,82,0.00,,,0.00,meteohub,2013-07-22 18:07:00,
2013-07-22 14:08:00,76.3,70.0,29.96,SE,141,6.0,12.0,81,0.00,,,0.00,meteohub,2013-07-22 18:08:00,
2013-07-22 14:17:00,76.1,70.2,29.96,ESE,105,7.0,11.0,82,0.00,,,0.00,meteohub,2013-07-22 18:17:00,
2013-07-22 14:22:00,75.7,69.8,29.96,SE,134,5.0,11.0,82,0.00,,,0.00,meteohub,2013-07-22 18:22:00,
2013-07-22 14:27:00,76.1,70.9,29.96,East,98,6.0,10.0,84,0.00,,,0.00,meteohub,2013-07-22 18:27:00,
2013-07-22 14:32:00,76.3,70.7,29.96,ESE,108,1.0,10.0,83,0.00,,,0.00,meteohub,2013-07-22 18:32:00,
2013-07-22 14:42:00,75.9,70.3,29.96,ESE,103,5.0,11.0,83,0.00,,,0.00,meteohub,2013-07-22 18:42:00,
2013-07-22 14:47:00,76.5,71.2,29.96,ESE,113,4.0,11.0,84,0.00,,,0.00,meteohub,2013-07-22 18:47:00,
2013-07-22 14:52:00,76.6,70.3,29.96,East,101,7.0,10.0,81,0.00,,,0.00,meteohub,2013-07-22 18:52:00,
2013-07-22 15:02:00,76.3,70.7,29.96,East,88,3.0,11.0,83,0.00,,,0.00,meteohub,2013-07-22 19:02:00,
2013-07-22 15:07:00,76.6,71.4,29.96,East,81,7.0,11.0,84,0.00,,,0.00,meteohub,2013-07-22 19:07:00,
2013-07-22 15:12:00,76.5,71.2,29.96,SE,125,5.0,9.0,84,0.00,,,0.00,meteohub,2013-07-22 19:12:00,
2013-07-22 15:19:00,76.6,71.4,29.95,East,96,3.0,10.0,84,0.00,,,0.00,meteohub,2013-07-22 19:19:00,
2013-07-22 15:24:00,76.5,70.9,29.95,East,91,8.0,10.0,83,0.00,,,0.00,meteohub,2013-07-22 19:24:00,
2013-07-22 15:29:00,76.3,71.4,29.95,East,94,5.0,9.0,85,0.00,,,0.00,meteohub,2013-07-22 19:29:00,
2013-07-22 15:35:00,76.3,71.4,29.95,ESE,102,3.0,9.0,85,0.00,,,0.00,meteohub,2013-07-22 19:35:00,
2013-07-22 15:40:00,75.9,71.4,29.94,East,96,7.0,9.0,86,0.00,,,0.00,meteohub,2013-07-22 19:40:00,
2013-07-22 15:44:00,75.6,71.1,29.95,ESE,103,5.0,9.0,86,0.00,,,0.00,meteohub,2013-07-22 19:44:00,
2013-07-22 15:50:00,75.2,71.1,29.95,ESE,122,6.0,11.0,87,0.00,,,0.00,meteohub,2013-07-22 19:50:00,
2013-07-22 15:55:00,75.4,71.6,29.94,East,96,6.0,11.0,88,0.00,,,0.00,meteohub,2013-07-22 19:55:00,
2013-07-22 16:00:00,75.0,71.2,29.94,East,90,9.0,11.0,88,0.00,,,0.00,meteohub,2013-07-22 20:00:00,
2013-07-22 16:05:00,74.8,70.7,29.94,East,84,10.0,12.0,87,0.00,,,0.00,meteohub,2013-07-22 20:05:00,
2013-07-22 16:10:00,74.8,71.1,29.94,ESE,115,6.0,12.0,88,0.00,,,0.00,meteohub,2013-07-22 20:10:00,
2013-07-22 16:16:00,74.8,71.4,29.94,ESE,110,4.0,12.0,89,0.00,,,0.00,meteohub,2013-07-22 20:16:00,
2013-07-22 16:17:00,74.8,71.4,29.94,East,86,6.0,11.0,89,0.00,,,0.00,meteohub,2013-07-22 20:17:00,
2013-07-22 16:18:00,74.8,71.1,29.94,ENE,76,7.0,11.0,88,0.00,,,0.00,meteohub,2013-07-22 20:18:00,
2013-07-22 16:23:00,74.3,70.2,29.94,SE,131,9.0,13.0,87,0.00,,,0.00,meteohub,2013-07-22 20:23:00,
2013-07-22 16:28:00,74.1,70.3,29.94,SE,138,6.0,13.0,88,0.00,,,0.00,meteohub,2013-07-22 20:28:00,
2013-07-22 16:33:00,73.9,70.9,29.94,East,96,6.0,13.0,90,0.00,,,0.00,meteohub,2013-07-22 20:33:00,
2013-07-22 16:38:00,73.8,70.7,29.94,East,88,5.0,13.0,90,0.00,,,0.00,meteohub,2013-07-22 20:38:00,
2013-07-22 16:43:00,73.8,71.2,29.94,SSW,204,1.0,13.0,92,0.00,,,0.00,meteohub,2013-07-22 20:43:00,
2013-07-22 16:48:00,73.6,71.1,29.93,SSE,147,5.0,10.0,92,0.00,,,0.00,meteohub,2013-07-22 20:48:00,
2013-07-22 16:53:00,73.6,71.4,29.93,ESE,105,7.0,10.0,93,0.00,,,0.00,meteohub,2013-07-22 20:53:00,
2013-07-22 16:58:00,73.6,71.4,29.93,SE,128,6.0,10.0,93,0.00,,,0.00,meteohub,2013-07-22 20:58:00,
2013-07-22 17:03:00,73.2,71.4,29.93,SE,132,5.0,10.0,94,0.00,,,0.00,meteohub,2013-07-22 21:03:00,
2013-07-22 17:08:00,73.2,71.4,29.93,East,88,6.0,9.0,94,0.00,,,0.00,meteohub,2013-07-22 21:08:00,
2013-07-22 17:13:00,73.0,71.2,29.93,East,98,5.0,11.0,94,0.00,,,0.00,meteohub,2013-07-22 21:13:00,
2013-07-22 17:18:00,73.2,71.8,29.93,ESE,104,6.0,11.0,95,0.00,,,0.00,meteohub,2013-07-22 21:18:00,
2013-07-22 17:23:00,73.2,71.4,29.93,East,94,4.0,11.0,94,0.00,,,0.00,meteohub,2013-07-22 21:23:00,
2013-07-22 17:28:00,73.0,71.2,29.93,East,92,5.0,11.0,94,0.00,,,0.00,meteohub,2013-07-22 21:28:00,
2013-07-22 17:33:00,73.0,71.2,29.93,East,100,4.0,9.0,94,0.00,,,0.00,meteohub,2013-07-22 21:33:00,
2013-07-22 17:38:00,73.0,71.6,29.93,East,90,5.0,9.0,95,0.00,,,0.00,meteohub,2013-07-22 21:38:00,
2013-07-22 17:43:00,72.9,71.4,29.93,ENE,64,4.0,9.0,95,0.00,,,0.00,meteohub,2013-07-22 21:43:00,
2013-07-22 17:48:00,72.9,71.4,29.92,East,92,6.0,7.0,95,0.00,,,0.00,meteohub,2013-07-22 21:48:00,
2013-07-22 17:53:00,72.7,71.2,29.92,East,100,5.0,7.0,95,0.00,,,0.00,meteohub,2013-07-22 21:53:00,
2013-07-22 17:58:00,72.3,71.1,29.92,ESE,115,2.0,8.0,96,0.00,,,0.00,meteohub,2013-07-22 21:58:00,
2013-07-22 18:03:00,72.1,71.2,29.92,East,96,6.0,8.0,97,0.00,,,0.00,meteohub,2013-07-22 22:03:00,
2013-07-22 18:08:00,72.0,71.1,29.92,ESE,108,7.0,8.0,97,0.00,,,0.00,meteohub,2013-07-22 22:08:00,
2013-07-22 18:13:00,71.8,71.2,29.92,East,84,2.0,10.0,98,0.00,,,0.00,meteohub,2013-07-22 22:13:00,
2013-07-22 18:18:00,71.8,71.2,29.91,ESE,116,6.0,10.0,98,0.00,,,0.00,meteohub,2013-07-22 22:18:00,
2013-07-22 18:23:00,71.8,71.2,29.91,ENE,64,0.0,10.0,98,0.00,,,0.00,meteohub,2013-07-22 22:23:00,
2013-07-22 18:29:00,71.8,71.2,29.91,ENE,70,3.0,9.0,98,0.00,,,0.00,meteohub,2013-07-22 22:29:00,
2013-07-22 18:34:00,71.8,71.2,29.91,East,84,6.0,9.0,98,0.00,,,0.00,meteohub,2013-07-22 22:34:00,
2013-07-22 18:39:00,71.6,71.1,29.91,ESE,112,6.0,7.0,98,0.00,,,0.00,meteohub,2013-07-22 22:39:00,
2013-07-22 18:43:00,71.4,70.9,29.91,SE,128,5.0,9.0,98,0.00,,,0.00,meteohub,2013-07-22 22:43:00,
2013-07-22 18:49:00,71.4,71.1,29.91,ESE,102,3.0,9.0,99,0.00,,,0.00,meteohub,2013-07-22 22:49:00,
2013-07-22 18:54:00,71.4,71.1,29.91,NE,53,2.0,9.0,99,0.00,,,0.00,meteohub,2013-07-22 22:54:00,
2013-07-22 18:59:00,71.2,70.9,29.91,ESE,118,3.0,10.0,99,0.00,,,0.00,meteohub,2013-07-22 22:59:00,
2013-07-22 19:04:00,71.2,70.9,29.91,ESE,119,8.0,10.0,99,0.00,,,0.00,meteohub,2013-07-22 23:04:00,
2013-07-22 19:09:00,71.2,70.9,29.91,ESE,103,5.0,10.0,99,0.00,,,0.00,meteohub,2013-07-22 23:09:00,
2013-07-22 19:14:00,71.2,70.9,29.91,East,85,3.0,11.0,99,0.00,,,0.00,meteohub,2013-07-22 23:14:00,
2013-07-22 19:19:00,71.2,70.9,29.91,ESE,103,5.0,11.0,99,0.00,,,0.00,meteohub,2013-07-22 23:19:00,
2013-07-22 19:24:00,71.2,70.9,29.91,East,94,3.0,9.0,99,0.00,,,0.00,meteohub,2013-07-22 23:24:00,
2013-07-22 19:29:00,71.2,70.9,29.91,SE,136,6.0,9.0,99,0.00,,,0.00,meteohub,2013-07-22 23:29:00,
2013-07-22 19:34:00,71.2,71.2,29.91,South,174,6.0,8.0,100,0.00,,,0.00,meteohub,2013-07-22 23:34:00,
2013-07-22 19:39:00,71.2,71.2,29.91,East,95,5.0,8.0,100,0.00,,,0.00,meteohub,2013-07-22 23:39:00,
2013-07-22 19:44:00,71.2,71.2,29.91,ESE,116,8.0,11.0,100,0.00,,,0.00,meteohub,2013-07-22 23:44:00,
2013-07-22 19:49:00,71.2,71.2,29.91,ESE,103,9.0,11.0,100,0.00,,,0.00,meteohub,2013-07-22 23:49:00,
2013-07-22 19:54:00,71.2,71.2,29.91,East,96,4.0,9.0,100,0.00,,,0.00,meteohub,2013-07-22 23:54:00,
2013-07-22 19:59:00,71.2,71.2,29.91,East,84,1.0,9.0,100,0.00,,,0.00,meteohub,2013-07-22 23:59:00,
2013-07-22 20:04:00,71.2,71.2,29.91,East,100,4.0,9.0,100,0.00,,,0.00,meteohub,2013-07-23 00:04:00,
2013-07-22 20:09:00,71.2,71.2,29.91,East,91,5.0,8.0,100,0.00,,,0.00,meteohub,2013-07-23 00:09:00,
2013-07-22 20:14:00,71.2,71.2,29.91,East,101,4.0,11.0,100,0.00,,,0.00,meteohub,2013-07-23 00:14:00,
2013-07-22 20:19:00,71.2,71.2,29.91,SE,132,5.0,11.0,100,0.00,,,0.00,meteohub,2013-07-23 00:19:00,
2013-07-22 20:24:00,71.4,71.4,29.91,SE,128,7.0,11.0,100,0.00,,,0.00,meteohub,2013-07-23 00:24:00,
2013-07-22 20:29:00,71.4,71.4,29.91,ESE,107,6.0,11.0,100,0.00,,,0.00,meteohub,2013-07-23 00:29:00,
2013-07-22 20:34:00,71.4,71.4,29.91,East,84,3.0,9.0,100,0.00,,,0.00,meteohub,2013-07-23 00:34:00,
2013-07-22 20:39:00,71.6,71.6,29.91,ESE,111,5.0,10.0,100,0.00,,,0.00,meteohub,2013-07-23 00:39:00,
2013-07-22 20:44:00,71.6,71.6,29.91,ESE,117,5.0,10.0,100,0.00,,,0.00,meteohub,2013-07-23 00:44:00,
2013-07-22 20:49:00,71.8,71.8,29.91,East,98,5.0,9.0,100,0.00,,,0.00,meteohub,2013-07-23 00:49:00,
2013-07-22 20:54:00,71.8,71.8,29.91,ESE,103,3.0,11.0,100,0.00,,,0.00,meteohub,2013-07-23 00:54:00,
2013-07-22 20:59:00,71.8,71.8,29.91,East,86,3.0,11.0,100,0.00,,,0.00,meteohub,2013-07-23 00:59:00,
2013-07-22 21:04:00,71.8,71.8,29.90,East,95,6.0,11.0,100,0.00,,,0.00,meteohub,2013-07-23 01:04:00,
2013-07-22 21:09:00,71.8,71.8,29.90,East,88,5.0,10.0,100,0.00,,,0.00,meteohub,2013-07-23 01:09:00,
2013-07-22 21:14:00,71.8,71.8,29.91,ESE,113,3.0,11.0,100,0.00,,,0.00,meteohub,2013-07-23 01:14:00,
2013-07-22 21:19:00,71.8,71.8,29.90,ESE,106,6.0,11.0,100,0.00,,,0.00,meteohub,2013-07-23 01:19:00,
2013-07-22 21:24:00,71.6,71.6,29.90,East,96,3.0,11.0,100,0.00,,,0.00,meteohub,2013-07-23 01:24:00,
2013-07-22 21:29:00,71.6,71.6,29.90,ENE,58,4.0,10.0,100,0.00,,,0.00,meteohub,2013-07-23 01:29:00,
2013-07-22 21:34:00,71.4,71.4,29.90,SE,125,5.0,10.0,100,0.00,,,0.00,meteohub,2013-07-23 01:34:00,
2013-07-22 21:39:00,71.4,71.4,29.90,East,82,6.0,10.0,100,0.00,,,0.00,meteohub,2013-07-23 01:39:00,
2013-07-22 21:44:00,71.4,71.4,29.90,East,97,8.0,12.0,100,0.00,,,0.00,meteohub,2013-07-23 01:44:00,
2013-07-22 21:49:00,71.4,71.4,29.90,East,94,2.0,12.0,100,0.00,,,0.00,meteohub,2013-07-23 01:49:00,
2013-07-22 21:55:00,71.4,71.4,29.90,ESE,110,5.0,12.0,100,0.00,,,0.00,meteohub,2013-07-23 01:55:00,
2013-07-22 22:00:00,71.2,71.2,29.90,ENE,73,4.0,11.0,100,0.00,,,0.00,meteohub,2013-07-23 02:00:00,
2013-07-22 22:05:00,71.2,71.2,29.90,ESE,112,6.0,9.0,100,0.00,,,0.00,meteohub,2013-07-23 02:05:00,
2013-07-22 22:10:00,71.2,71.2,29.89,ESE,105,2.0,9.0,100,0.00,,,0.00,meteohub,2013-07-23 02:10:00,
2013-07-22 22:15:00,71.2,71.2,29.89,ESE,118,6.0,9.0,100,0.00,,,0.00,meteohub,2013-07-23 02:15:00,
2013-07-22 22:20:00,71.2,71.2,29.89,East,89,4.0,9.0,100,0.00,,,0.00,meteohub,2013-07-23 02:20:00,
2013-07-22 22:25:00,71.1,71.1,29.89,ESE,108,7.0,9.0,100,0.00,,,0.00,meteohub,2013-07-23 02:25:00,
2013-07-22 22:30:00,71.1,71.1,29.89,SE,128,5.0,9.0,100,0.00,,,0.00,meteohub,2013-07-23 02:30:00,
2013-07-22 22:35:00,71.1,71.1,29.89,SE,126,2.0,9.0,100,0.00,,,0.00,meteohub,2013-07-23 02:35:00,
2013-07-22 22:40:00,71.1,71.1,29.89,ESE,116,4.0,10.0,100,0.00,,,0.00,meteohub,2013-07-23 02:40:00,
2013-07-22 22:45:00,71.1,71.1,29.89,ESE,113,7.0,10.0,100,0.00,,,0.00,meteohub,2013-07-23 02:45:00,
2013-07-22 22:50:00,70.9,70.9,29.89,East,88,3.0,11.0,100,0.00,,,0.00,meteohub,2013-07-23 02:50:00,
2013-07-22 22:55:00,70.9,70.9,29.89,East,101,3.0,11.0,100,0.00,,,0.00,meteohub,2013-07-23 02:55:00,
2013-07-22 23:00:00,70.9,70.9,29.89,ESE,113,2.0,11.0,100,0.00,,,0.00,meteohub,2013-07-23 03:00:00,
2013-07-22 23:05:00,70.9,70.9,29.89,East,91,7.0,9.0,100,0.00,,,0.00,meteohub,2013-07-23 03:05:00,
2013-07-22 23:10:00,70.9,70.9,29.89,ESE,113,7.0,9.0,100,0.00,,,0.00,meteohub,2013-07-23 03:10:00,
2013-07-22 23:15:00,70.9,70.9,29.89,ENE,60,3.0,10.0,100,0.00,,,0.00,meteohub,2013-07-23 03:15:00,
2013-07-22 23:20:00,70.9,70.9,29.89,ESE,105,5.0,10.0,100,0.00,,,0.00,meteohub,2013-07-23 03:20:00,
2013-07-22 23:25:00,70.9,70.9,29.89,ENE,78,5.0,10.0,100,0.00,,,0.00,meteohub,2013-07-23 03:25:00,
2013-07-22 23:30:00,70.7,70.7,29.89,ESE,115,5.0,9.0,100,0.00,,,0.00,meteohub,2013-07-23 03:30:00,
2013-07-22 23:35:00,70.7,70.7,29.89,East,94,6.0,9.0,100,0.00,,,0.00,meteohub,2013-07-23 03:35:00,
2013-07-22 23:40:00,70.9,70.9,29.89,East,98,8.0,10.0,100,0.00,,,0.00,meteohub,2013-07-23 03:40:00,
2013-07-22 23:45:00,70.9,70.9,29.88,ENE,74,3.0,10.0,100,0.00,,,0.00,meteohub,2013-07-23 03:45:00,
2013-07-22 23:50:00,70.9,70.9,29.88,ESE,103,4.0,10.0,100,0.00,,,0.00,meteohub,2013-07-23 03:50:00,
2013-07-22 23:55:00,70.9,70.9,29.88,ESE,108,6.0,10.0,100,0.00,,,0.00,meteohub,2013-07-23 03:55:00,